Time;durP1;ratioP1;P1;durP2;ratioP2;P2;SDS_P1;SDS_P2;PMS_P1;PMS_P2;Temp;Humidity;BMP_temperature;BMP_pressure;BME280_temperature;BME280_humidity;BME280_pressure;Samples;Min_cycle;Max_cycle;Signal;HPM_P1;HPM_P2
2023/11/27 09:04:56;;;;;;;2.97;1.95;;;;;;;;;;6174650;22;20101;-86
2023/11/27 09:13:29;;;;;;;;;;;;;;;;;;6223761;23;20016;-86
2023/11/27 09:16:01;;;;;;;;;;;;;;;;;;6194133;23;20123;-86
2023/11/27 11:35:11;;;;;;;0.88;0.45;;;;;;;;;;6178412;23;20073;-86
2023/11/27 11:38:12;;;;;;;3.10;1.55;;;;;;;;;;6145692;23;20414;-86
2023/11/27 11:49:47;;;;;;;;;;;;;;;;;;;;;
2023/11/27 12:00:43;;;;;;;1.50;1.15;;;;;;;;;;6052950;23;20075;-86
2023/11/27 12:03:28;;;;;;;1.33;0.73;;;;;;;;;;6061993;23;20023;-86
2023/11/27 12:06:02;;;;;;;1.65;0.65;;;;;;;;;;6062676;23;20014;-86
2023/11/27 12:09:02;;;;;;;;;;;;;;;;;;;;;
2023/11/27 12:11:31;;;;;;;6.80;1.38;;;;;;;;;;6058097;23;20089;-86
2023/11/27 12:13:58;;;;;;;4.88;1.65;;;;;;;;;;6063385;23;20011;-86
2023/11/27 12:16:44;;;;;;;4.75;1.33;;;;;;;;;;6062077;23;20090;-86
2023/11/27 12:23:20;;;;;;;4.85;0.93;;;;;;;;;;6236098;23;20026;-85
2023/11/27 12:29:24;;;;;;;3.55;0.80;;;;;;;;;;6135544;23;20013;-85
2023/11/27 12:41:32;;;;;;;0.95;0.60;;;;;;;;;;6212263;22;20456;-87
2023/11/27 12:44:59;;;;;;;5.28;1.33;;;;;;;;;;6188642;23;20096;-87
2023/11/27 12:47:23;;;;;;;2.15;0.88;;;;;;;;;;6208029;23;20028;-87
2023/11/27 13:09:05;;;;;;;0.60;0.30;;;;;;;;;;6180695;23;20025;-87
2023/11/27 13:11:37;;;;;;;1.80;0.73;;;;;;;;;;6180489;23;20013;-86
2023/11/27 14:12:38;;;;;;;2.20;1.00;;;;;;;;;;6201862;23;20034;-86
2023/11/27 14:23:25;;;;;;;4.53;0.80;;;;;;;;;;6201546;22;20486;-82
2023/11/27 14:29:10;;;;;;;1.55;0.85;;;;;;;;;;6203235;23;20451;-86
2023/11/27 14:31:38;;;;;;;4.43;0.90;;;;;;;;;;6192598;23;20445;-86
2023/11/27 14:34:24;;;;;;;2.85;1.38;;;;;;;;;;6195599;23;20427;-86
2023/11/27 14:47:11;;;;;;;2.26;1.01;;;;;;;;;;6158504;23;15088415;-87
2023/11/27 14:55:41;;;;;;;0.57;0.20;;;;;;;;;;6156835;23;20040;-86
2023/11/27 14:58:13;;;;;;;0.30;0.10;;;;;;;;;;6153761;23;20413;-83
2023/11/27 15:00:43;;;;;;;0.38;0.28;;;;;;;;;;6127561;23;20441;-84
2023/11/27 15:03:19;;;;;;;2.70;1.08;;;;;;;;;;6127274;23;20013;-85
2023/11/27 15:08:48;;;;;;;2.30;1.02;;;;;;;;;;6137689;23;20037;-84
2023/11/27 15:11:14;;;;;;;0.85;0.55;;;;;;;;;;6127266;23;20017;-85
2023/11/27 15:13:44;;;;;;;2.45;0.52;;;;;;;;;;6127271;23;20009;-86
2023/11/27 15:16:23;;;;;;;0.85;0.55;;;;;;;;;;6127081;23;20092;-84
2023/11/27 15:18:50;;;;;;;3.08;0.45;;;;;;;;;;6155029;23;20014;-85
2023/11/27 15:21:18;;;;;;;7.50;1.52;;;;;;;;;;6127043;23;20322;-84
2023/11/27 15:24:17;;;;;;;;;;;;;;;;;;;;;
2023/11/27 15:27:15;;;;;;;2.83;0.75;;;;;;;;;;6206588;23;20073;-86
2023/11/27 15:29:41;;;;;;;0.85;0.35;;;;;;;;;;6185808;23;20448;-81
2023/11/27 15:32:07;;;;;;;0.80;0.28;;;;;;;;;;6212006;23;20095;-82
2023/11/27 15:34:33;;;;;;;1.13;0.43;;;;;;;;;;6184845;23;20009;-82
2023/11/27 15:36:59;;;;;;;4.05;0.20;;;;;;;;;;6185204;23;20058;-82
2023/11/27 15:39:32;;;;;;;3.88;1.27;;;;;;;;;;6184442;23;20063;-82
2023/11/27 15:42:07;;;;;;;1.15;0.17;;;;;;;;;;6202523;22;20017;-83
2023/11/27 15:44:34;;;;;;;0.10;0.10;;;;;;;;;;6213068;23;20005;-82
2023/11/27 15:47:00;;;;;;;0.30;0.25;;;;;;;;;;6214321;23;20147;-84
2023/11/27 15:52:49;;;;;;;0.47;0.15;;;;;;;;;;6216938;23;20318;-84
2023/11/27 15:55:20;;;;;;;0.28;0.10;;;;;;;;;;6192069;23;20013;-85
2023/11/27 15:57:52;;;;;;;0.52;0.20;;;;;;;;;;6191391;23;20025;-83
2023/11/27 16:00:25;;;;;;;0.65;0.38;;;;;;;;;;6190623;23;20012;-84
2023/11/27 16:02:58;;;;;;;0.00;0.00;;;;;;;;;;6190726;23;20011;-84
2023/11/27 16:05:24;;;;;;;1.02;0.32;;;;;;;;;;6191292;23;20000;-85
2023/11/27 16:11:48;;;;;;;1.02;0.40;;;;;;;;;;6247372;23;20004;-85
2023/11/27 16:17:22;;;;;;;0.55;0.17;;;;;;;;;;6210852;23;20020;-85
2023/11/27 16:19:55;;;;;;;0.93;0.40;;;;;;;;;;6189831;23;20100;-84
2023/11/27 16:31:56;;;;;;;0.95;0.60;;;;;;;;;;6067178;23;20046;-84
2023/11/27 16:34:22;;;;;;;1.20;0.50;;;;;;;;;;6066699;23;20003;-82
2023/11/27 16:36:49;;;;;;;2.85;1.10;;;;;;;;;;6160968;23;20017;-84
2023/11/27 16:39:17;;;;;;;0.90;0.30;;;;;;;;;;6187018;23;20012;-85
2023/11/27 16:41:43;;;;;;;1.35;0.80;;;;;;;;;;6190074;23;20107;-83
2023/11/27 16:44:09;;;;;;;0.05;0.00;;;;;;;;;;6211535;23;20015;-82
2023/11/27 16:46:37;;;;;;;1.55;0.30;;;;;;;;;;6185061;23;20032;-82
2023/11/27 16:49:15;;;;;;;0.38;0.15;;;;;;;;;;6177796;23;20052;-83
2023/11/27 16:51:48;;;;;;;2.90;1.30;;;;;;;;;;6184055;23;20036;-83
2023/11/27 16:54:16;;;;;;;1.77;0.55;;;;;;;;;;6184443;23;20021;-83
2023/11/27 16:56:42;;;;;;;1.90;0.95;;;;;;;;;;6184850;23;20484;-83
2023/11/27 16:59:11;;;;;;;2.33;1.08;;;;;;;;;;6185629;23;20020;-82
2023/11/27 17:01:37;;;;;;;5.00;2.40;;;;;;;;;;6214105;23;20005;-83
2023/11/27 17:04:05;;;;;;;3.30;1.67;;;;;;;;;;6186775;23;20016;-83
2023/11/27 17:06:31;;;;;;;4.30;0.68;;;;;;;;;;6186629;23;20317;-83
2023/11/27 17:08:57;;;;;;;8.38;1.10;;;;;;;;;;6184669;23;20017;-81
2023/11/27 17:11:23;;;;;;;4.38;2.20;;;;;;;;;;6213504;23;20013;-82
2023/11/27 17:13:49;;;;;;;6.70;2.17;;;;;;;;;;6187459;23;20096;-82
2023/11/27 17:16:16;;;;;;;2.88;1.02;;;;;;;;;;6187522;23;20035;-83
2023/11/27 17:18:42;;;;;;;2.58;1.30;;;;;;;;;;6187839;23;20016;-82
2023/11/27 17:21:08;;;;;;;2.47;1.50;;;;;;;;;;6213896;23;20000;-82
2023/11/27 17:23:37;;;;;;;4.18;2.28;;;;;;;;;;6186248;23;20067;-80
2023/11/27 17:26:03;;;;;;;1.70;0.40;;;;;;;;;;6213189;23;20655;-80
2023/11/27 17:28:30;;;;;;;1.23;0.50;;;;;;;;;;6213578;23;20032;-80
2023/11/27 17:30:56;;;;;;;5.03;1.05;;;;;;;;;;6212983;23;20016;-79
2023/11/27 17:33:23;;;;;;;10.10;0.55;;;;;;;;;;6213384;23;20008;-80
2023/11/27 17:35:49;;;;;;;11.88;0.60;;;;;;;;;;6213404;23;20010;-82
2023/11/27 17:38:15;;;;;;;2.55;0.50;;;;;;;;;;6213165;23;20005;-82
2023/11/27 17:40:41;;;;;;;3.78;0.68;;;;;;;;;;6186275;23;20013;-81
2023/11/27 17:43:10;;;;;;;1.25;0.60;;;;;;;;;;6213575;23;20008;-81
2023/11/27 17:45:41;;;;;;;;;;;;;;;;;;6187106;23;20087;-82
2023/11/27 17:48:07;;;;;;;;;;;;;;;;;;6213834;23;19924;-81
2023/11/27 17:50:34;;;;;;;;;;;;;;;;;;6212147;23;20026;-81
2023/11/27 17:53:01;;;;;;;0.65;0.22;;;;;;;;;;6213263;23;19938;-80
2023/11/27 17:55:29;;;;;;;2.20;0.70;;;;;;;;;;6213202;23;20005;-82
2023/11/27 17:57:56;;;;;;;0.30;0.20;;;;;;;;;;6214257;23;20009;-81
2023/11/27 18:00:22;;;;;;;1.40;0.63;;;;;;;;;;6214285;23;20047;-81
2023/11/27 18:02:52;;;;;;;1.55;0.60;;;;;;;;;;6187853;23;20356;-81
2023/11/27 18:05:23;;;;;;;0.70;0.30;;;;;;;;;;6188241;23;20004;-84
2023/11/27 18:08:02;;;;;;;1.27;0.08;;;;;;;;;;6189423;23;20011;-83
2023/11/27 18:10:29;;;;;;;0.73;0.38;;;;;;;;;;6191047;23;20340;-82
2023/11/27 18:12:55;;;;;;;3.05;0.95;;;;;;;;;;6191933;23;20082;-84
2023/11/27 18:15:22;;;;;;;1.50;0.60;;;;;;;;;;6190361;23;20398;-83
2023/11/27 18:17:51;;;;;;;3.50;1.02;;;;;;;;;;6190285;23;20375;-83
2023/11/27 18:20:18;;;;;;;2.50;1.00;;;;;;;;;;6189632;23;20691;-83
2023/11/27 18:22:47;;;;;;;1.45;0.75;;;;;;;;;;6191550;23;20240;-85
2023/11/27 18:25:14;;;;;;;0.77;0.43;;;;;;;;;;6191417;23;20058;-83
2023/11/27 18:27:40;;;;;;;0.60;0.45;;;;;;;;;;6190964;23;20015;-81
2023/11/27 18:30:07;;;;;;;0.88;0.47;;;;;;;;;;6215772;23;20008;-84
2023/11/27 18:32:34;;;;;;;1.92;0.57;;;;;;;;;;6217397;23;20328;-85
2023/11/27 18:35:00;;;;;;;2.13;0.32;;;;;;;;;;6191110;23;20341;-84
2023/11/27 18:37:28;;;;;;;0.55;0.20;;;;;;;;;;6191433;23;20066;-85
2023/11/27 18:39:55;;;;;;;7.53;2.10;;;;;;;;;;6190839;23;20063;-84
2023/11/27 18:42:26;;;;;;;6.82;3.92;;;;;;;;;;6191221;23;20405;-85
2023/11/27 18:44:51;;;;;;;3.40;1.88;;;;;;;;;;6190403;23;20013;-85
2023/11/27 18:47:18;;;;;;;2.38;1.33;;;;;;;;;;6190164;23;20054;-83
2023/11/27 18:49:44;;;;;;;3.50;0.93;;;;;;;;;;6189783;23;20103;-83
2023/11/27 18:52:11;;;;;;;2.25;0.70;;;;;;;;;;6189867;23;20012;-82
2023/11/27 18:54:37;;;;;;;2.25;0.63;;;;;;;;;;6190220;23;20011;-83
2023/11/27 18:57:03;;;;;;;1.10;0.40;;;;;;;;;;6216558;23;20007;-82
2023/11/27 18:59:30;;;;;;;1.60;1.30;;;;;;;;;;6215245;23;20429;-82
2023/11/27 19:01:56;;;;;;;4.97;1.25;;;;;;;;;;6215313;23;20011;-85
2023/11/27 19:04:23;;;;;;;5.10;2.20;;;;;;;;;;6215664;23;20028;-85
2023/11/27 19:06:49;;;;;;;5.57;1.95;;;;;;;;;;6189121;23;20009;-84
2023/11/27 19:09:18;;;;;;;3.10;0.85;;;;;;;;;;6190314;23;20052;-86
2023/11/27 19:11:44;;;;;;;1.88;0.63;;;;;;;;;;6216748;23;20004;-84
2023/11/27 19:14:10;;;;;;;4.18;0.55;;;;;;;;;;6216524;23;20013;-84
2023/11/27 19:16:36;;;;;;;0.90;0.50;;;;;;;;;;6189687;23;20507;-84
2023/11/27 19:19:02;;;;;;;1.77;0.85;;;;;;;;;;6188537;23;20043;-84
2023/11/27 19:21:28;;;;;;;5.47;2.17;;;;;;;;;;6187859;23;20052;-83
2023/11/27 19:23:54;;;;;;;6.25;2.13;;;;;;;;;;6186596;23;20026;-84
2023/11/27 19:26:20;;;;;;;5.00;2.92;;;;;;;;;;6186436;23;20072;-84
2023/11/27 19:28:47;;;;;;;5.80;3.05;;;;;;;;;;6213706;23;20044;-83
2023/11/27 19:31:14;;;;;;;7.55;3.13;;;;;;;;;;6212475;23;20332;-84
2023/11/27 19:33:41;;;;;;;7.07;3.33;;;;;;;;;;6186565;23;20016;-83
2023/11/27 19:36:08;;;;;;;4.55;2.10;;;;;;;;;;6211870;23;20111;-84
2023/11/27 19:38:34;;;;;;;6.45;1.60;;;;;;;;;;6214018;23;20016;-84
2023/11/27 19:41:05;;;;;;;3.13;1.25;;;;;;;;;;6213114;23;20020;-84
2023/11/27 19:43:31;;;;;;;4.00;1.73;;;;;;;;;;6214222;23;20005;-83
2023/11/27 19:45:58;;;;;;;2.72;1.00;;;;;;;;;;6211972;23;20413;-83
2023/11/27 19:48:25;;;;;;;5.25;1.75;;;;;;;;;;6212344;23;20091;-84
2023/11/27 19:50:50;;;;;;;2.65;0.95;;;;;;;;;;6213606;23;20004;-83
2023/11/27 19:53:18;;;;;;;0.90;0.40;;;;;;;;;;6211326;23;20447;-83
2023/11/27 19:55:44;;;;;;;1.83;0.75;;;;;;;;;;6210527;23;20009;-83
2023/11/27 19:58:10;;;;;;;0.75;0.43;;;;;;;;;;6210477;23;20017;-83
2023/11/27 20:00:36;;;;;;;1.38;0.65;;;;;;;;;;6209944;23;20015;-82
2023/11/27 20:03:04;;;;;;;0.82;0.70;;;;;;;;;;6211537;23;20013;-84
2023/11/27 20:05:32;;;;;;;3.10;1.00;;;;;;;;;;6210821;23;20043;-82
2023/11/27 20:07:58;;;;;;;1.05;0.10;;;;;;;;;;6210658;23;20016;-83
2023/11/27 20:10:24;;;;;;;1.30;0.30;;;;;;;;;;6212439;23;20005;-84
2023/11/27 20:12:50;;;;;;;1.40;0.50;;;;;;;;;;6212582;23;20016;-83
2023/11/27 20:15:20;;;;;;;1.67;0.70;;;;;;;;;;6212589;23;20084;-84
2023/11/27 20:17:46;;;;;;;1.50;1.08;;;;;;;;;;6214248;23;20016;-83
2023/11/27 20:20:14;;;;;;;5.90;2.15;;;;;;;;;;6211845;23;20332;-84
2023/11/27 20:22:41;;;;;;;2.13;1.20;;;;;;;;;;6210745;23;20036;-83
2023/11/27 20:25:07;;;;;;;4.05;1.30;;;;;;;;;;6210987;23;20005;-84
2023/11/27 20:27:34;;;;;;;7.10;2.38;;;;;;;;;;6211500;23;20056;-84
2023/11/27 20:30:00;;;;;;;4.13;1.50;;;;;;;;;;6211157;23;20039;-85
2023/11/27 20:32:27;;;;;;;8.55;0.85;;;;;;;;;;6208518;23;20040;-84
2023/11/27 20:34:53;;;;;;;1.80;0.60;;;;;;;;;;6210713;23;20687;-84
2023/11/27 20:37:20;;;;;;;1.67;0.45;;;;;;;;;;6210146;23;20016;-85
2023/11/27 20:39:46;;;;;;;2.25;0.98;;;;;;;;;;6212442;23;20416;-84
2023/11/27 20:42:13;;;;;;;1.02;0.30;;;;;;;;;;6210178;23;20042;-83
2023/11/27 20:44:39;;;;;;;0.43;0.25;;;;;;;;;;6211227;23;20605;-83
2023/11/27 20:47:05;;;;;;;4.38;0.85;;;;;;;;;;6210680;23;20059;-83
2023/11/27 20:49:31;;;;;;;3.08;1.10;;;;;;;;;;6210199;23;20020;-84
2023/11/27 20:51:57;;;;;;;1.00;0.50;;;;;;;;;;6209992;23;20315;-84
2023/11/27 20:54:24;;;;;;;3.38;0.80;;;;;;;;;;6210530;23;20024;-84
2023/11/27 20:56:51;;;;;;;0.40;0.10;;;;;;;;;;6210511;23;20016;-84
2023/11/27 20:59:18;;;;;;;0.20;0.13;;;;;;;;;;6209833;23;20019;-83
2023/11/27 21:01:44;;;;;;;0.90;0.40;;;;;;;;;;6211595;23;20429;-83
2023/11/27 21:04:10;;;;;;;0.68;0.47;;;;;;;;;;6209850;23;20115;-83
2023/11/27 21:06:36;;;;;;;1.98;0.70;;;;;;;;;;6209175;23;20009;-85
2023/11/27 21:09:04;;;;;;;6.15;1.38;;;;;;;;;;6210716;23;20016;-84
2023/11/27 21:11:31;;;;;;;6.18;2.20;;;;;;;;;;6207515;23;20632;-85
2023/11/27 21:13:57;;;;;;;2.38;1.27;;;;;;;;;;6210750;23;20013;-85
2023/11/27 21:16:26;;;;;;;2.80;1.05;;;;;;;;;;6210452;23;20009;-85
2023/11/27 21:18:52;;;;;;;5.30;2.33;;;;;;;;;;6210941;23;20012;-84
2023/11/27 21:21:20;;;;;;;3.97;1.50;;;;;;;;;;6209960;23;20104;-84
2023/11/27 21:23:46;;;;;;;4.88;1.65;;;;;;;;;;6210704;23;20031;-84
2023/11/27 21:26:12;;;;;;;2.45;1.10;;;;;;;;;;6208298;23;20738;-85
2023/11/27 21:28:38;;;;;;;4.05;1.48;;;;;;;;;;6210156;23;20111;-85
2023/11/27 21:31:04;;;;;;;3.50;2.25;;;;;;;;;;6212668;23;20542;-85
2023/11/27 21:33:30;;;;;;;2.88;1.38;;;;;;;;;;6210165;23;20009;-85
2023/11/27 21:35:58;;;;;;;7.25;1.60;;;;;;;;;;6211407;23;20487;-85
2023/11/27 21:38:24;;;;;;;3.22;1.55;;;;;;;;;;6209427;23;20214;-85
2023/11/27 21:40:50;;;;;;;4.13;1.40;;;;;;;;;;6212906;23;20051;-85
2023/11/27 21:43:17;;;;;;;6.32;1.42;;;;;;;;;;6209871;23;20000;-85
2023/11/27 21:45:43;;;;;;;2.10;1.10;;;;;;;;;;6212174;23;20428;-85
2023/11/27 21:48:09;;;;;;;2.63;1.05;;;;;;;;;;6212402;23;20104;-85
2023/11/27 21:50:35;;;;;;;5.15;1.52;;;;;;;;;;6213066;23;20428;-85
2023/11/27 21:53:01;;;;;;;1.98;1.00;;;;;;;;;;6212226;23;20043;-85
2023/11/27 21:55:29;;;;;;;5.43;2.40;;;;;;;;;;6212053;23;20096;-86
2023/11/27 21:57:55;;;;;;;11.55;1.55;;;;;;;;;;6212059;23;20012;-85
2023/11/27 22:00:21;;;;;;;2.40;1.13;;;;;;;;;;6213215;23;20098;-85
2023/11/27 22:02:47;;;;;;;13.20;1.65;;;;;;;;;;6213055;23;20008;-85
2023/11/27 22:05:13;;;;;;;4.18;2.03;;;;;;;;;;6213386;23;20020;-86
2023/11/27 22:07:39;;;;;;;2.15;1.02;;;;;;;;;;6212800;23;20441;-85
2023/11/27 22:10:09;;;;;;;5.53;0.98;;;;;;;;;;6212694;23;20091;-85
2023/11/27 22:12:35;;;;;;;2.15;1.25;;;;;;;;;;6212437;23;20328;-85
2023/11/27 22:15:02;;;;;;;1.45;0.55;;;;;;;;;;6211916;23;20706;-85
2023/11/27 22:17:28;;;;;;;2.85;1.52;;;;;;;;;;6210893;23;20092;-85
2023/11/27 22:19:54;;;;;;;0.75;0.47;;;;;;;;;;6211743;23;20019;-84
2023/11/27 22:22:20;;;;;;;5.95;2.03;;;;;;;;;;6211575;23;20050;-85
2023/11/27 22:24:46;;;;;;;2.25;1.05;;;;;;;;;;6213907;23;20036;-85
2023/11/27 22:27:12;;;;;;;2.80;0.90;;;;;;;;;;6212155;23;20000;-85
2023/11/27 22:29:41;;;;;;;2.08;0.80;;;;;;;;;;6211865;23;20059;-85
2023/11/27 22:32:07;;;;;;;1.85;0.60;;;;;;;;;;6213426;23;20015;-85
2023/11/27 22:34:33;;;;;;;2.17;1.00;;;;;;;;;;6212135;23;20063;-85
2023/11/27 22:36:59;;;;;;;5.75;1.60;;;;;;;;;;6211854;23;20348;-85
2023/11/27 22:39:25;;;;;;;3.20;1.00;;;;;;;;;;6212731;23;20628;-85
2023/11/27 22:41:51;;;;;;;3.03;1.38;;;;;;;;;;6214400;23;20020;-84
2023/11/27 22:44:17;;;;;;;2.22;0.85;;;;;;;;;;6212557;23;20039;-85
2023/11/27 22:46:43;;;;;;;6.50;0.65;;;;;;;;;;6213992;23;20329;-84
2023/11/27 22:49:09;;;;;;;3.28;1.15;;;;;;;;;;6213260;23;20051;-84
2023/11/27 22:51:35;;;;;;;2.83;1.02;;;;;;;;;;6212431;23;20008;-84
2023/11/27 22:54:02;;;;;;;2.08;0.55;;;;;;;;;;6213282;23;20008;-84
2023/11/27 22:56:29;;;;;;;4.40;0.82;;;;;;;;;;6212742;23;20090;-84
2023/11/27 22:58:55;;;;;;;1.42;0.57;;;;;;;;;;6213659;23;20044;-85
2023/11/27 23:01:21;;;;;;;2.28;0.93;;;;;;;;;;6214559;23;20079;-85
2023/11/27 23:03:47;;;;;;;1.92;0.88;;;;;;;;;;6212590;23;20014;-85
2023/11/27 23:06:13;;;;;;;2.15;0.98;;;;;;;;;;6211421;23;20410;-84
2023/11/27 23:08:39;;;;;;;4.50;1.08;;;;;;;;;;6212238;23;20009;-85
2023/11/27 23:11:06;;;;;;;1.65;0.75;;;;;;;;;;6211077;23;20040;-85
2023/11/27 23:13:33;;;;;;;1.08;0.93;;;;;;;;;;6212873;23;20001;-84
2023/11/27 23:15:59;;;;;;;2.17;0.75;;;;;;;;;;6211071;23;20012;-84
2023/11/27 23:18:25;;;;;;;0.90;0.25;;;;;;;;;;6210755;23;20005;-84
2023/11/27 23:20:51;;;;;;;10.05;3.92;;;;;;;;;;6210595;23;20399;-84
2023/11/27 23:23:17;;;;;;;9.65;3.58;;;;;;;;;;6211206;23;20008;-84
2023/11/27 23:25:44;;;;;;;5.05;2.20;;;;;;;;;;6210695;23;20013;-84
2023/11/27 23:28:10;;;;;;;1.30;0.55;;;;;;;;;;6211232;23;20336;-84
2023/11/27 23:30:36;;;;;;;0.85;0.63;;;;;;;;;;6211657;23;20024;-84
2023/11/27 23:33:02;;;;;;;0.13;0.13;;;;;;;;;;6211111;23;20012;-84
2023/11/27 23:35:28;;;;;;;1.08;0.52;;;;;;;;;;6213630;23;20020;-84
2023/11/27 23:37:54;;;;;;;0.98;0.52;;;;;;;;;;6213103;23;20020;-84
2023/11/27 23:40:21;;;;;;;1.08;0.40;;;;;;;;;;6186684;23;20081;-84
2023/11/27 23:42:47;;;;;;;2.83;1.13;;;;;;;;;;6186033;23;20031;-85
2023/11/27 23:45:13;;;;;;;3.40;1.00;;;;;;;;;;6211931;23;20044;-84
2023/11/27 23:47:39;;;;;;;0.98;0.52;;;;;;;;;;6211131;23;20008;-84
2023/11/27 23:50:06;;;;;;;0.57;0.38;;;;;;;;;;6211340;23;20459;-83
2023/11/27 23:52:32;;;;;;;1.10;0.68;;;;;;;;;;6211148;23;20523;-84
2023/11/27 23:54:58;;;;;;;2.00;0.50;;;;;;;;;;6211573;23;20016;-84
2023/11/27 23:57:24;;;;;;;1.77;1.13;;;;;;;;;;6209819;23;20020;-84
2023/11/27 23:59:50;;;;;;;4.35;0.50;;;;;;;;;;6210842;23;20008;-84
